createdAt,value
2023-03-19T00:02:21.146Z,26.05
2023-03-19T00:03:41.817Z,31.77
2023-03-19T00:05:03.112Z,27.70
2023-03-19T00:06:23.563Z,24.95
2023-03-19T00:07:44.424Z,28.17
2023-03-19T00:09:05.358Z,26.73
2023-03-19T00:10:25.669Z,27.48
2023-03-19T00:11:46.241Z,31.40
2023-03-19T00:13:06.635Z,29.80
2023-03-19T00:14:27.477Z,30.25
2023-03-19T00:15:47.944Z,31.48
2023-03-19T00:17:08.628Z,25.43
2023-03-19T00:18:30.719Z,32.08
2023-03-19T00:21:11.199Z,31.60
2023-03-19T00:22:31.870Z,34.25
2023-03-19T00:23:52.523Z,28.50
2023-03-19T00:25:13.252Z,30.98
2023-03-19T00:26:34.874Z,31.33
2023-03-19T00:29:15.693Z,33.38
2023-03-19T00:30:36.573Z,30.63
2023-03-19T00:31:57.330Z,34.67
2023-03-19T00:33:18.166Z,29.35
2023-03-19T00:34:40.468Z,32.00
2023-03-19T00:36:00.951Z,29.95
2023-03-19T00:37:21.556Z,28.25
2023-03-19T00:38:42.641Z,29.73
2023-03-19T00:40:03.870Z,28.10
2023-03-19T00:41:25.866Z,33.25
2023-03-19T00:42:46.383Z,30.17
2023-03-19T00:44:06.856Z,29.70
2023-03-19T00:45:27.404Z,31.30
2023-03-19T00:46:47.852Z,32.75
2023-03-19T00:48:08.388Z,36.17
2023-03-19T00:49:28.943Z,35.75
2023-03-19T00:50:51.281Z,35.63
2023-03-19T00:52:12.179Z,30.85
2023-03-19T00:53:33.054Z,36.97
2023-03-19T00:54:53.746Z,34.38
2023-03-19T00:56:15.129Z,35.97
2023-03-19T00:57:35.843Z,31.90
2023-03-19T00:58:56.817Z,31.57
2023-03-19T01:00:18.601Z,33.40
2023-03-19T01:01:39.386Z,37.40
2023-03-19T01:03:00.423Z,37.53
2023-03-19T01:04:20.626Z,33.17
2023-03-19T01:05:41.235Z,39.08
2023-03-19T01:07:03.117Z,34.53
2023-03-19T01:08:24.027Z,37.15
2023-03-19T01:09:44.749Z,37.50
2023-03-19T01:11:06.982Z,30.35
2023-03-19T01:12:28.416Z,34.85
2023-03-19T01:13:49.048Z,36.65
2023-03-19T01:15:10.319Z,32.20
2023-03-19T01:16:31.172Z,36.15
2023-03-19T01:17:51.752Z,34.60
2023-03-19T01:19:12.243Z,36.83
2023-03-19T01:20:33.085Z,34.95
2023-03-19T01:21:53.789Z,32.40
2023-03-19T01:23:15.936Z,31.42
2023-03-19T01:24:36.259Z,34.10
2023-03-19T01:25:56.774Z,33.20
2023-03-19T01:27:17.370Z,34.77
2023-03-19T01:28:37.771Z,32.88
2023-03-19T01:29:58.583Z,31.83
2023-03-19T01:31:19.627Z,34.08
2023-03-19T01:32:40.137Z,31.83
2023-03-19T01:34:00.942Z,34.17
2023-03-19T01:35:21.540Z,38.45
2023-03-19T01:36:42.297Z,39.58
2023-03-19T01:38:03.073Z,35.28
2023-03-19T01:39:25.226Z,38.47
2023-03-19T01:40:46.126Z,37.78
2023-03-19T01:42:07.824Z,42.13
2023-03-19T01:44:49.215Z,40.40
2023-03-19T01:46:16.664Z,42.35
2023-03-19T01:47:39.184Z,47.53
2023-03-19T01:49:01.129Z,45.28
2023-03-19T01:50:25.560Z,47.13
2023-03-19T01:51:47.102Z,46.17
2023-03-19T01:53:08.067Z,44.30
2023-03-19T01:54:31.066Z,47.10
2023-03-19T01:55:53.293Z,44.28
2023-03-19T01:57:14.868Z,40.47
2023-03-19T01:58:35.728Z,50.55
2023-03-19T01:59:57.749Z,49.00
2023-03-19T02:01:18.987Z,48.35
2023-03-19T02:02:40.618Z,43.58
2023-03-19T02:04:01.310Z,46.92
2023-03-19T02:05:22.214Z,45.45
2023-03-19T02:06:43.714Z,46.43
2023-03-19T02:08:07.700Z,44.20
2023-03-19T02:09:31.120Z,46.20
2023-03-19T02:10:52.741Z,44.90
2023-03-19T02:12:14.014Z,45.13
2023-03-19T02:13:34.924Z,56.72
2023-03-19T02:14:55.315Z,45.90
2023-03-19T02:16:16.039Z,40.38
2023-03-19T02:17:36.604Z,41.93
2023-03-19T02:18:57.926Z,44.28
2023-03-19T02:20:25.996Z,44.38
2023-03-19T02:21:46.491Z,42.80
2023-03-19T02:23:14.198Z,38.90
2023-03-19T02:24:39.664Z,36.80
2023-03-19T02:26:09.716Z,39.10
2023-03-19T02:27:30.171Z,33.38
2023-03-19T02:28:52.416Z,35.13
2023-03-19T02:30:20.853Z,30.58
2023-03-19T02:31:41.695Z,29.10
2023-03-19T02:33:02.437Z,28.65
2023-03-19T02:34:37.712Z,28.00
2023-03-19T02:35:58.430Z,27.65
2023-03-19T02:37:22.821Z,23.02
2023-03-19T02:38:44.799Z,25.98
2023-03-19T02:40:08.743Z,24.15
2023-03-19T02:41:31.946Z,22.02
2023-03-19T02:42:52.659Z,22.15
2023-03-19T02:44:13.488Z,18.67
2023-03-19T02:45:34.038Z,27.10
2023-03-19T02:46:54.968Z,23.25
2023-03-19T02:48:15.611Z,20.38
2023-03-19T02:49:36.270Z,23.13
2023-03-19T02:50:57.196Z,22.85
2023-03-19T02:52:18.178Z,19.97
2023-03-19T02:53:38.912Z,21.52
2023-03-19T02:54:59.247Z,23.20
2023-03-19T02:56:19.882Z,23.20
2023-03-19T02:57:41.868Z,24.20
2023-03-19T02:59:02.548Z,19.67
2023-03-19T03:00:23.216Z,18.20
2023-03-19T03:01:44.322Z,20.83
2023-03-19T03:03:05.575Z,21.57
2023-03-19T03:04:25.761Z,21.13
2023-03-19T03:05:46.501Z,19.83
2023-03-19T03:07:07.408Z,19.02
2023-03-19T03:08:28.140Z,18.23
2023-03-19T03:09:48.909Z,18.17
2023-03-19T03:11:09.500Z,20.92
2023-03-19T03:12:30.020Z,20.75
2023-03-19T03:13:52.139Z,19.95
2023-03-19T03:15:12.587Z,17.85
2023-03-19T03:16:33.921Z,22.85
2023-03-19T03:17:55.034Z,24.92
2023-03-19T03:19:15.929Z,23.20
2023-03-19T03:20:36.357Z,29.35
2023-03-19T03:21:57.073Z,29.15
2023-03-19T03:23:17.543Z,28.65
2023-03-19T03:24:38.955Z,32.67
2023-03-19T03:27:19.635Z,37.60
2023-03-19T03:28:40.226Z,39.30
2023-03-19T03:30:02.439Z,39.20
2023-03-19T03:31:23.273Z,43.28
2023-03-19T03:32:44.354Z,44.80
2023-03-19T03:34:04.695Z,44.65
2023-03-19T03:35:25.378Z,57.70
2023-03-19T03:36:46.014Z,53.90
2023-03-19T03:38:06.744Z,53.28
2023-03-19T03:39:27.398Z,54.00
2023-03-19T03:40:50.379Z,59.97
2023-03-19T03:42:10.960Z,56.47
2023-03-19T03:43:31.742Z,67.78
2023-03-19T03:44:52.117Z,59.22
2023-03-19T03:46:14.474Z,60.50
2023-03-19T03:47:35.253Z,59.65
2023-03-19T03:48:56.017Z,56.28
2023-03-19T03:50:16.804Z,61.00
2023-03-19T03:51:37.293Z,58.42
2023-03-19T03:52:58.058Z,60.50
2023-03-19T03:54:19.006Z,54.93
2023-03-19T03:55:39.586Z,54.53
2023-03-19T03:57:02.121Z,53.78
2023-03-19T03:58:24.527Z,55.63
2023-03-19T03:59:44.997Z,59.35
2023-03-19T04:01:06.196Z,72.20
2023-03-19T04:02:28.250Z,67.85
2023-03-19T04:03:48.754Z,70.05
2023-03-19T04:05:09.646Z,68.75
2023-03-19T04:06:30.116Z,78.85
2023-03-19T04:07:50.678Z,76.00
2023-03-19T04:09:11.339Z,73.27
2023-03-19T04:10:32.196Z,76.03
2023-03-19T04:11:52.617Z,74.10
2023-03-19T04:13:13.722Z,77.55
2023-03-19T04:14:35.600Z,72.30
2023-03-19T04:15:56.278Z,74.55
2023-03-19T04:17:16.922Z,72.43
2023-03-19T04:18:39.059Z,74.05
2023-03-19T04:19:59.816Z,83.22
2023-03-19T04:21:20.645Z,81.15
2023-03-19T04:22:41.312Z,80.55
2023-03-19T04:24:01.767Z,75.07
2023-03-19T04:25:22.328Z,81.50
2023-03-19T04:26:44.110Z,84.30
2023-03-19T04:29:25.323Z,98.25
2023-03-19T04:30:45.975Z,89.82
2023-03-19T04:32:07.499Z,88.63
2023-03-19T04:33:28.756Z,82.32
2023-03-19T04:34:50.835Z,95.53
2023-03-19T04:36:11.477Z,90.53
2023-03-19T04:37:31.997Z,88.30
2023-03-19T04:38:52.582Z,95.90
2023-03-19T04:40:14.220Z,95.75
2023-03-19T04:42:56.254Z,97.35
2023-03-19T04:44:16.935Z,101.28
2023-03-19T04:45:37.411Z,96.63
2023-03-19T04:46:57.943Z,99.75
2023-03-19T04:48:18.665Z,101.83
2023-03-19T04:49:39.298Z,96.22
2023-03-19T04:51:01.337Z,92.85
2023-03-19T04:52:21.726Z,87.30
2023-03-19T04:53:42.257Z,114.90
2023-03-19T04:55:03.346Z,103.97
2023-03-19T04:56:23.855Z,99.28
2023-03-19T04:57:44.558Z,97.82
2023-03-19T04:59:05.187Z,106.05
2023-03-19T05:00:25.727Z,117.00
2023-03-19T05:01:46.517Z,109.18
2023-03-19T05:03:07.220Z,98.70
2023-03-19T05:04:27.984Z,102.45
2023-03-19T05:05:48.673Z,105.13
2023-03-19T05:07:11.199Z,106.30
2023-03-19T05:08:31.857Z,98.85
2023-03-19T05:09:52.434Z,94.90
2023-03-19T05:11:12.971Z,110.93
2023-03-19T05:12:33.608Z,107.25
2023-03-19T05:13:54.515Z,103.95
2023-03-19T05:15:15.075Z,100.72
2023-03-19T05:16:35.321Z,103.60
2023-03-19T05:17:55.819Z,99.45
2023-03-19T05:19:17.474Z,95.72
2023-03-19T05:21:58.387Z,102.93
2023-03-19T05:23:20.196Z,116.40
2023-03-19T05:24:40.617Z,102.55
2023-03-19T05:26:01.304Z,105.05
2023-03-19T05:27:21.878Z,96.50
2023-03-19T05:28:43.056Z,115.32
2023-03-19T05:30:04.654Z,108.32
2023-03-19T05:31:25.245Z,115.72
2023-03-19T05:32:45.967Z,129.55
2023-03-19T05:34:06.560Z,121.60
2023-03-19T05:35:28.300Z,116.38
2023-03-19T05:36:49.229Z,106.30
2023-03-19T05:38:09.747Z,114.28
2023-03-19T05:39:31.910Z,161.20
2023-03-19T05:40:52.607Z,130.02
2023-03-19T05:42:13.343Z,121.57
2023-03-19T05:43:34.302Z,132.50
2023-03-19T05:44:55.146Z,139.05
2023-03-19T05:46:15.633Z,178.23
2023-03-19T05:47:36.301Z,136.65
2023-03-19T05:48:56.941Z,140.65
2023-03-19T05:50:17.963Z,175.52
2023-03-19T05:51:38.326Z,142.07
2023-03-19T05:52:59.130Z,138.60
2023-03-19T05:54:19.698Z,155.60
2023-03-19T05:55:41.610Z,131.63
2023-03-19T05:57:03.303Z,136.30
2023-03-19T05:58:24.418Z,145.05
2023-03-19T05:59:45.461Z,149.07
2023-03-19T06:01:06.507Z,134.30
2023-03-19T06:02:27.378Z,186.43
2023-03-19T06:03:47.848Z,140.85
2023-03-19T06:05:09.639Z,149.90
2023-03-19T06:06:30.378Z,144.18
2023-03-19T06:07:51.082Z,147.07
2023-03-19T06:09:11.908Z,146.63
2023-03-19T06:10:34.060Z,139.82
2023-03-19T06:11:56.295Z,146.00
2023-03-19T06:13:16.844Z,176.57
2023-03-19T06:14:37.297Z,178.35
2023-03-19T06:15:58.185Z,158.77
2023-03-19T06:17:18.783Z,139.23
2023-03-19T06:18:39.541Z,149.90
2023-03-19T06:20:00.095Z,142.15
2023-03-19T06:21:20.912Z,154.80
2023-03-19T06:22:42.553Z,157.90
2023-03-19T06:24:03.119Z,143.98
2023-03-19T06:25:23.973Z,142.88
2023-03-19T06:26:44.665Z,151.63
2023-03-19T06:28:06.646Z,145.55
2023-03-19T06:29:27.600Z,175.50
2023-03-19T06:30:48.340Z,140.82
2023-03-19T06:32:09.884Z,172.83
2023-03-19T06:34:50.854Z,141.65
2023-03-19T06:36:11.531Z,144.07
2023-03-19T06:37:32.307Z,139.15
2023-03-19T06:38:53.087Z,148.45
2023-03-19T06:40:13.823Z,148.88
2023-03-19T06:41:34.304Z,174.98
2023-03-19T06:42:55.073Z,142.00
2023-03-19T06:44:17.196Z,138.05
2023-03-19T06:45:38.052Z,146.48
2023-03-19T06:46:58.700Z,125.85
2023-03-19T06:48:19.576Z,130.15
2023-03-19T06:49:40.032Z,144.67
2023-03-19T06:51:00.586Z,135.93
2023-03-19T06:52:21.227Z,141.10
2023-03-19T06:53:41.835Z,124.72
2023-03-19T06:55:02.428Z,153.18
2023-03-19T06:56:23.126Z,131.48
2023-03-19T06:57:43.509Z,128.68
2023-03-19T06:59:04.134Z,126.18
2023-03-19T07:00:26.280Z,124.20
2023-03-19T07:01:46.607Z,137.55
2023-03-19T07:03:07.386Z,143.85
2023-03-19T07:04:28.163Z,117.77
2023-03-19T07:05:50.422Z,126.22
2023-03-19T07:07:11.372Z,126.10
2023-03-19T07:08:32.132Z,145.70
2023-03-19T07:09:53.552Z,117.53
2023-03-19T07:11:15.484Z,144.00
2023-03-19T07:13:56.809Z,131.90
2023-03-19T07:15:17.897Z,118.97
2023-03-19T07:16:40.139Z,135.32
2023-03-19T07:18:00.437Z,125.40
2023-03-19T07:19:21.197Z,124.00
2023-03-19T07:20:42.131Z,150.77
2023-03-19T07:22:02.905Z,111.47
2023-03-19T07:23:23.826Z,105.38
2023-03-19T07:24:44.547Z,125.18
2023-03-19T07:26:05.278Z,120.35
2023-03-19T07:27:25.816Z,116.68
2023-03-19T07:28:46.529Z,119.72
2023-03-19T07:30:08.719Z,113.93
2023-03-19T07:31:29.083Z,124.93
2023-03-19T07:32:53.506Z,117.97
2023-03-19T07:34:13.718Z,137.38
2023-03-19T07:35:34.796Z,128.18
2023-03-19T07:36:55.555Z,125.07
2023-03-19T07:38:16.388Z,123.20
2023-03-19T07:39:36.800Z,137.85
2023-03-19T07:41:02.433Z,124.88
2023-03-19T07:42:23.886Z,137.95
2023-03-19T07:43:44.375Z,141.10
2023-03-19T07:45:06.162Z,158.70
2023-03-19T07:46:26.688Z,133.32
2023-03-19T07:47:49.266Z,148.77
2023-03-19T07:49:12.249Z,138.73
2023-03-19T07:50:33.143Z,145.45
2023-03-19T07:51:53.972Z,150.98
2023-03-19T07:53:14.610Z,133.23
2023-03-19T07:54:35.340Z,131.30
2023-03-19T07:55:56.009Z,144.07
2023-03-19T07:57:16.835Z,137.98
2023-03-19T07:58:37.410Z,141.13
2023-03-19T07:59:57.946Z,145.88
2023-03-19T08:01:18.192Z,168.90
2023-03-19T08:02:39.131Z,143.32
2023-03-19T08:03:59.746Z,145.00
2023-03-19T08:05:21.750Z,150.30
2023-03-19T08:06:42.488Z,147.95
2023-03-19T08:08:03.069Z,160.43
2023-03-19T08:09:23.715Z,133.50
2023-03-19T08:10:44.641Z,146.68
2023-03-19T08:12:05.591Z,171.93
2023-03-19T08:13:25.963Z,155.70
2023-03-19T08:14:46.654Z,151.63
2023-03-19T08:16:07.351Z,163.43
2023-03-19T08:17:27.984Z,155.48
2023-03-19T08:18:49.954Z,159.37
2023-03-19T08:20:14.372Z,164.30
2023-03-19T08:21:36.077Z,157.07
2023-03-19T08:22:56.794Z,174.93
2023-03-19T08:24:17.592Z,172.38
2023-03-19T08:25:38.331Z,223.13
2023-03-19T08:26:58.895Z,212.82
2023-03-19T08:28:19.706Z,180.03
2023-03-19T08:29:40.311Z,169.02
2023-03-19T08:31:07.264Z,204.43
2023-03-19T08:32:27.651Z,176.35
2023-03-19T08:33:48.232Z,184.35
2023-03-19T08:35:09.705Z,173.27
2023-03-19T08:37:52.551Z,166.57
2023-03-19T08:39:13.126Z,167.65
2023-03-19T08:40:33.938Z,175.27
2023-03-19T08:41:54.997Z,170.32
2023-03-19T08:43:15.368Z,157.15
2023-03-19T08:44:36.036Z,160.50
2023-03-19T08:45:56.680Z,163.80
2023-03-19T08:47:17.531Z,151.38
2023-03-19T08:48:39.707Z,161.18
2023-03-19T08:50:02.248Z,145.57
2023-03-19T08:51:26.257Z,156.25
2023-03-19T08:52:46.762Z,157.30
2023-03-19T08:54:08.697Z,156.60
2023-03-19T08:55:29.430Z,158.35
2023-03-19T08:56:50.268Z,149.45
2023-03-19T08:58:10.999Z,148.38
2023-03-19T08:59:33.944Z,157.20
2023-03-19T09:01:01.222Z,134.13
2023-03-19T09:02:21.963Z,138.73
2023-03-19T09:03:43.455Z,132.55
2023-03-19T09:06:24.539Z,146.65
2023-03-19T09:07:45.056Z,140.35
2023-03-19T09:09:05.654Z,130.55
2023-03-19T09:10:27.743Z,129.07
2023-03-19T09:13:08.480Z,140.55
2023-03-19T09:14:29.185Z,136.95
2023-03-19T09:15:49.943Z,139.35
2023-03-19T09:17:11.305Z,139.00
2023-03-19T09:18:31.988Z,116.57
2023-03-19T09:19:52.628Z,141.27
2023-03-19T09:21:13.311Z,131.33
2023-03-19T09:22:33.995Z,133.35
2023-03-19T09:23:54.906Z,133.10
2023-03-19T09:25:15.225Z,109.18
2023-03-19T09:26:37.234Z,124.50
2023-03-19T09:27:57.834Z,120.57
2023-03-19T09:29:18.488Z,103.57
2023-03-19T09:30:39.304Z,98.75
2023-03-19T09:31:59.735Z,95.75
2023-03-19T09:33:21.424Z,78.60
2023-03-19T09:34:41.922Z,87.70
2023-03-19T09:36:02.474Z,77.70
2023-03-19T09:37:23.143Z,75.38
2023-03-19T09:38:43.859Z,84.00
2023-03-19T09:40:05.878Z,83.10
2023-03-19T09:41:31.977Z,84.90
2023-03-19T09:43:03.388Z,88.35
2023-03-19T09:47:20.389Z,74.60
2023-03-19T09:48:48.992Z,92.95
2023-03-19T09:50:14.031Z,100.18
2023-03-19T09:51:39.478Z,97.40
2023-03-19T09:53:03.741Z,86.22
2023-03-19T09:54:31.379Z,85.50
2023-03-19T09:55:52.510Z,86.35
2023-03-19T09:57:14.956Z,91.75
2023-03-19T09:58:36.957Z,85.05
2023-03-19T09:59:57.567Z,82.78
2023-03-19T10:01:24.989Z,93.18
2023-03-19T10:02:45.939Z,100.25
2023-03-19T10:04:40.626Z,102.80
2023-03-19T10:06:10.025Z,97.97
2023-03-19T10:07:43.686Z,91.40
2023-03-19T10:09:37.337Z,91.70
2023-03-19T10:11:09.100Z,85.25
2023-03-19T10:14:05.267Z,89.90
2023-03-19T10:15:28.591Z,91.75
2023-03-19T10:16:52.319Z,104.60
2023-03-19T10:18:16.818Z,95.97
2023-03-19T10:19:41.107Z,100.35
2023-03-19T10:21:05.250Z,107.88
2023-03-19T10:22:29.052Z,103.45
2023-03-19T10:23:53.454Z,108.05
2023-03-19T10:25:19.971Z,95.95
2023-03-19T10:26:41.820Z,111.18
2023-03-19T10:28:14.456Z,103.68
2023-03-19T10:29:37.119Z,94.97
2023-03-19T10:31:08.022Z,89.07
2023-03-19T10:32:36.040Z,93.80
2023-03-19T10:34:08.840Z,105.85
2023-03-19T10:35:39.747Z,93.15
2023-03-19T10:37:01.915Z,90.83
2023-03-19T10:38:24.958Z,91.50
2023-03-19T10:39:46.922Z,83.38
2023-03-19T10:41:19.542Z,92.70
2023-03-19T10:42:47.252Z,81.88
2023-03-19T10:44:12.575Z,83.97
2023-03-19T10:45:36.565Z,82.13
2023-03-19T10:46:59.414Z,85.00
2023-03-19T10:48:19.952Z,80.45
2023-03-19T10:49:41.225Z,81.22
2023-03-19T10:51:04.877Z,74.13
2023-03-19T10:52:29.349Z,84.32
2023-03-19T10:53:52.600Z,81.50
2023-03-19T10:55:15.035Z,87.88
2023-03-19T10:56:35.393Z,86.25
2023-03-19T10:58:02.601Z,89.70
2023-03-19T10:59:25.792Z,82.88
2023-03-19T11:00:49.512Z,72.43
2023-03-19T11:02:17.052Z,78.10
2023-03-19T11:03:38.666Z,68.85
2023-03-19T11:05:07.438Z,69.70
2023-03-19T11:06:32.122Z,74.50
2023-03-19T11:07:56.674Z,71.35
2023-03-19T11:09:21.572Z,72.05
2023-03-19T11:10:46.466Z,66.13
2023-03-19T11:12:08.494Z,66.47
2023-03-19T11:13:29.285Z,60.78
2023-03-19T11:14:51.918Z,67.63
2023-03-19T11:16:14.275Z,68.93
2023-03-19T11:17:38.586Z,63.45
2023-03-19T11:18:58.972Z,67.20
2023-03-19T11:20:22.714Z,65.57
2023-03-19T11:21:53.753Z,63.00
2023-03-19T11:23:20.502Z,68.03
2023-03-19T11:24:50.555Z,63.33
2023-03-19T11:26:19.126Z,61.15
2023-03-19T11:27:39.891Z,73.85
2023-03-19T11:29:04.700Z,78.75
2023-03-19T11:30:26.459Z,81.35
2023-03-19T11:31:52.322Z,75.97
2023-03-19T11:33:29.344Z,75.57
2023-03-19T11:34:54.017Z,71.93
2023-03-19T11:36:18.657Z,77.75
2023-03-19T11:37:53.607Z,70.85
2023-03-19T11:39:21.754Z,66.68
2023-03-19T11:40:44.720Z,61.10
2023-03-19T11:42:22.312Z,66.70
2023-03-19T11:43:51.116Z,74.60
2023-03-19T11:45:20.276Z,73.25
2023-03-19T11:46:45.358Z,70.72
2023-03-19T11:48:25.404Z,78.85
2023-03-19T11:49:55.066Z,65.13
2023-03-19T11:51:20.332Z,65.55
2023-03-19T11:52:51.741Z,71.82
2023-03-19T11:54:21.109Z,65.55
2023-03-19T11:55:44.247Z,63.75
2023-03-19T11:57:09.489Z,69.10
2023-03-19T11:58:50.078Z,71.65
2023-03-19T12:00:22.998Z,73.55
2023-03-19T12:02:12.573Z,72.85
2023-03-19T12:04:02.301Z,70.55
2023-03-19T12:05:25.659Z,72.97
2023-03-19T12:06:51.905Z,64.25
2023-03-19T12:08:23.510Z,74.70
2023-03-19T12:09:49.785Z,68.90
2023-03-19T12:11:17.822Z,70.90
2023-03-19T12:12:41.202Z,67.90
2023-03-19T12:14:20.519Z,68.65
2023-03-19T12:15:47.147Z,78.07
2023-03-19T12:17:26.036Z,61.28
2023-03-19T12:19:17.858Z,67.85
2023-03-19T12:20:48.196Z,65.85
2023-03-19T12:22:14.760Z,67.18
2023-03-19T12:23:45.378Z,67.70
2023-03-19T12:25:16.998Z,74.78
2023-03-19T12:28:06.382Z,73.82
2023-03-19T12:29:33.122Z,60.78
2023-03-19T12:31:09.425Z,58.22
2023-03-19T12:32:45.392Z,60.03
2023-03-19T12:34:20.242Z,65.70
2023-03-19T12:35:41.597Z,62.35
2023-03-19T12:38:30.855Z,56.85
2023-03-19T12:39:58.631Z,55.70
2023-03-19T12:41:21.947Z,58.10
2023-03-19T12:42:42.323Z,53.72
2023-03-19T12:44:06.853Z,48.87
2023-03-19T12:45:31.211Z,52.92
2023-03-19T12:46:58.566Z,46.38
2023-03-19T12:48:23.290Z,48.90
2023-03-19T12:49:49.703Z,51.10
2023-03-19T12:51:12.925Z,53.05
2023-03-19T12:52:36.396Z,48.35
2023-03-19T12:53:59.361Z,46.88
2023-03-19T12:55:22.055Z,37.03
2023-03-19T12:56:47.737Z,45.80
2023-03-19T12:58:14.339Z,42.22
2023-03-19T12:59:37.438Z,53.03
2023-03-19T13:01:00.733Z,42.38
2023-03-19T13:02:26.782Z,38.13
2023-03-19T13:03:57.519Z,39.53
2023-03-19T13:05:22.020Z,43.67
2023-03-19T13:06:47.917Z,47.80
2023-03-19T13:08:14.810Z,44.40
2023-03-19T13:09:39.007Z,39.55
2023-03-19T13:11:01.789Z,40.97
2023-03-19T13:12:24.961Z,39.53
2023-03-19T13:13:51.286Z,40.30
2023-03-19T13:15:15.980Z,37.33
2023-03-19T13:16:42.130Z,35.70
2023-03-19T13:18:10.041Z,32.67
2023-03-19T13:19:33.780Z,39.42
2023-03-19T13:21:10.212Z,34.20
2023-03-19T13:22:33.494Z,32.63
2023-03-19T13:24:04.336Z,29.00
2023-03-19T13:25:29.363Z,28.67
2023-03-19T13:26:50.283Z,28.63
2023-03-19T13:28:11.672Z,26.40
2023-03-19T13:29:33.193Z,29.88
2023-03-19T13:31:01.581Z,34.00
2023-03-19T13:32:30.310Z,30.70
2023-03-19T13:33:53.506Z,36.30
2023-03-19T13:35:35.507Z,35.25
2023-03-19T13:37:01.696Z,38.75
2023-03-19T13:38:25.530Z,37.33
2023-03-19T13:39:47.504Z,37.10
2023-03-19T13:41:40.964Z,36.50
2023-03-19T13:43:02.364Z,41.17
2023-03-19T13:45:54.959Z,40.70
2023-03-19T13:47:38.056Z,37.50
2023-03-19T13:49:10.640Z,40.45
2023-03-19T13:50:49.725Z,33.25
2023-03-19T13:52:46.091Z,38.05
2023-03-19T13:54:13.818Z,34.90
2023-03-19T13:55:46.181Z,37.25
2023-03-19T13:57:33.498Z,35.67
2023-03-19T13:59:23.214Z,31.70
2023-03-19T14:00:59.798Z,32.35
2023-03-19T14:02:47.056Z,33.58
2023-03-19T14:04:18.113Z,36.78
2023-03-19T14:05:38.904Z,34.47
2023-03-19T14:07:10.686Z,34.80
2023-03-19T14:10:07.964Z,34.35
2023-03-19T14:11:31.071Z,33.72
2023-03-19T14:12:52.771Z,34.42
2023-03-19T14:14:15.586Z,33.22
2023-03-19T14:15:39.291Z,40.20
2023-03-19T14:17:00.376Z,48.60
2023-03-19T14:18:22.647Z,42.95
2023-03-19T14:19:44.392Z,50.08
2023-03-19T14:21:08.856Z,48.75
2023-03-19T14:22:36.335Z,46.22
2023-03-19T14:26:15.671Z,51.80
2023-03-19T14:27:36.207Z,54.35
2023-03-19T14:29:01.397Z,53.90
2023-03-19T14:30:29.893Z,50.97
2023-03-19T14:31:51.449Z,50.75
2023-03-19T14:34:38.417Z,43.05
2023-03-19T14:36:03.132Z,36.63
2023-03-19T14:37:24.977Z,36.00
2023-03-19T14:38:49.693Z,37.92
2023-03-19T14:40:14.574Z,31.75
2023-03-19T14:41:40.858Z,37.78
2023-03-19T14:43:05.272Z,33.60
2023-03-19T14:44:57.947Z,34.40
2023-03-19T14:46:23.341Z,30.88
2023-03-19T14:47:56.539Z,27.27
2023-03-19T14:49:54.145Z,28.77
2023-03-19T14:51:30.806Z,24.92
2023-03-19T14:52:54.420Z,23.45
2023-03-19T14:54:24.484Z,27.85
2023-03-19T14:55:49.862Z,25.42
2023-03-19T14:57:16.805Z,28.42
2023-03-19T14:58:37.573Z,28.60
2023-03-19T14:59:58.575Z,26.00
2023-03-19T15:01:20.076Z,25.70
2023-03-19T15:02:42.182Z,28.55
2023-03-19T15:04:05.251Z,27.00
2023-03-19T15:05:28.100Z,28.48
2023-03-19T15:06:52.737Z,27.63
2023-03-19T15:08:13.685Z,29.23
2023-03-19T15:09:34.537Z,27.00
2023-03-19T15:11:05.985Z,34.15
2023-03-19T15:12:35.270Z,24.20
2023-03-19T15:14:09.357Z,30.30
2023-03-19T15:15:39.602Z,25.65
2023-03-19T15:17:06.600Z,27.85
2023-03-19T15:18:27.591Z,25.67
2023-03-19T15:19:49.267Z,24.83
2023-03-19T15:21:09.828Z,25.75
2023-03-19T15:22:33.046Z,24.52
2023-03-19T15:23:53.866Z,22.52
2023-03-19T15:25:15.396Z,25.70
2023-03-19T15:26:37.704Z,24.52
2023-03-19T15:28:07.823Z,24.75
2023-03-19T15:29:31.933Z,23.05
2023-03-19T15:31:06.040Z,23.58
2023-03-19T15:32:52.301Z,38.30
2023-03-19T15:34:24.475Z,27.27
2023-03-19T15:35:45.271Z,31.88
2023-03-19T15:37:08.596Z,28.67
2023-03-19T15:38:31.702Z,27.00
2023-03-19T15:39:54.960Z,25.05
2023-03-19T15:41:16.733Z,30.33
2023-03-19T15:42:38.952Z,27.95
2023-03-19T15:43:59.895Z,24.90
2023-03-19T15:45:22.226Z,30.80
2023-03-19T15:46:43.673Z,27.83
2023-03-19T15:48:08.947Z,28.95
2023-03-19T15:49:31.913Z,32.10
2023-03-19T15:50:56.711Z,32.08
2023-03-19T15:52:18.589Z,33.08
2023-03-19T15:53:39.283Z,30.98
2023-03-19T15:55:00.998Z,32.47
2023-03-19T15:56:21.901Z,31.23
2023-03-19T15:57:44.148Z,32.50
2023-03-19T15:59:04.893Z,36.95
2023-03-19T16:00:25.568Z,35.63
2023-03-19T16:01:46.092Z,33.15
2023-03-19T16:03:07.275Z,36.13
2023-03-19T16:04:29.041Z,40.72
2023-03-19T16:05:52.033Z,47.17
2023-03-19T16:07:23.505Z,46.25
2023-03-19T16:08:48.005Z,58.95
2023-03-19T16:10:34.899Z,58.65
2023-03-19T16:11:56.248Z,58.17
2023-03-19T16:13:26.332Z,59.47
2023-03-19T16:14:48.102Z,57.10
2023-03-19T16:16:17.533Z,42.08
2023-03-19T16:17:37.955Z,46.40
2023-03-19T16:18:59.408Z,40.85
2023-03-19T16:20:20.358Z,40.17
2023-03-19T16:21:41.567Z,37.67
2023-03-19T16:23:02.124Z,35.42
2023-03-19T16:24:25.165Z,37.35
2023-03-19T16:25:46.211Z,37.65
2023-03-19T16:27:10.368Z,43.20
2023-03-19T16:28:32.615Z,45.70
2023-03-19T16:29:57.040Z,44.03
2023-03-19T16:31:23.042Z,53.47
2023-03-19T16:32:43.752Z,62.05
2023-03-19T16:34:04.370Z,55.47
2023-03-19T16:35:28.131Z,61.27
2023-03-19T16:36:54.584Z,65.80
2023-03-19T16:38:17.948Z,59.63
2023-03-19T16:39:54.102Z,67.78
2023-03-19T16:41:18.757Z,68.15
2023-03-19T16:42:40.273Z,57.15
2023-03-19T16:45:32.256Z,58.22
2023-03-19T16:48:13.482Z,56.80
2023-03-19T16:49:34.052Z,53.53
2023-03-19T16:50:54.580Z,46.85
2023-03-19T16:52:18.520Z,52.10
2023-03-19T16:53:38.826Z,58.85
2023-03-19T16:54:59.919Z,48.95
2023-03-19T16:56:20.279Z,57.72
2023-03-19T16:57:40.868Z,53.30
2023-03-19T16:59:03.390Z,54.40
2023-03-19T17:00:24.973Z,56.67
2023-03-19T17:01:45.602Z,59.15
2023-03-19T17:03:11.456Z,60.80
2023-03-19T17:04:31.828Z,56.47
2023-03-19T17:05:52.805Z,58.58
2023-03-19T17:07:13.430Z,54.13
2023-03-19T17:08:33.915Z,52.72
2023-03-19T17:09:56.582Z,56.22
2023-03-19T17:11:21.515Z,58.50
2023-03-19T17:12:41.920Z,56.47
2023-03-19T17:14:05.718Z,55.75
2023-03-19T17:15:29.065Z,60.92
2023-03-19T17:16:49.953Z,63.47
2023-03-19T17:18:15.105Z,70.13
2023-03-19T17:19:36.338Z,71.20
2023-03-19T17:20:59.597Z,66.35
2023-03-19T17:22:20.049Z,72.03
2023-03-19T17:23:40.757Z,68.63
2023-03-19T17:25:01.318Z,77.23
2023-03-19T17:26:23.666Z,75.57
2023-03-19T17:27:44.333Z,70.90
2023-03-19T17:29:06.047Z,72.38
2023-03-19T17:30:28.678Z,71.20
2023-03-19T17:31:49.925Z,68.38
2023-03-19T17:33:21.953Z,64.32
2023-03-19T17:34:42.238Z,54.65
2023-03-19T17:36:02.871Z,65.68
2023-03-19T17:37:23.650Z,61.25
2023-03-19T17:38:44.266Z,55.78
2023-03-19T17:40:16.296Z,44.92
2023-03-19T17:42:57.341Z,49.45
2023-03-19T17:44:19.253Z,51.42
2023-03-19T17:45:41.727Z,55.95
2023-03-19T17:47:02.160Z,41.63
2023-03-19T17:48:24.465Z,47.85
2023-03-19T17:49:45.352Z,36.08
2023-03-19T17:51:08.234Z,42.65
2023-03-19T17:52:29.295Z,41.90
2023-03-19T17:53:51.427Z,46.20
2023-03-19T17:55:15.748Z,39.55
2023-03-19T17:56:36.437Z,35.60
2023-03-19T17:57:57.042Z,31.07
2023-03-19T17:59:19.185Z,36.10
2023-03-19T18:00:39.704Z,38.15
2023-03-19T18:02:01.374Z,29.73
2023-03-19T18:03:23.035Z,32.92
2023-03-19T18:04:43.678Z,24.90
2023-03-19T18:06:04.234Z,38.92
2023-03-19T18:07:25.059Z,29.05
2023-03-19T18:08:46.042Z,36.85
2023-03-19T18:10:07.443Z,33.33
2023-03-19T18:11:28.096Z,33.17
2023-03-19T18:12:48.646Z,38.20
2023-03-19T18:14:08.939Z,34.97
2023-03-19T18:15:31.013Z,32.35
2023-03-19T18:16:51.666Z,25.23
2023-03-19T18:18:16.880Z,27.48
2023-03-19T18:19:38.553Z,25.75
2023-03-19T18:21:00.661Z,25.27